Time;durP1;ratioP1;P1;durP2;ratioP2;P2;SDS_P1;SDS_P2;PMS_P1;PMS_P2;Temp;Humidity;BMP_temperature;BMP_pressure;BME280_temperature;BME280_humidity;BME280_pressure;Samples;Min_cycle;Max_cycle;Signal;HPM_P1;HPM_P2
2023/06/20 00:00:34;;;;;;;10.13;5.50;;;20.50;99.90;;;;;;5058031;28;20086;-66
2023/06/20 00:03:00;;;;;;;9.67;6.03;;;20.40;99.90;;;;;;5063011;28;20138;-66
2023/06/20 00:05:25;;;;;;;17.93;6.47;;;20.30;99.90;;;;;;5063299;28;20106;-66
2023/06/20 00:07:54;;;;;;;10.53;6.13;;;20.40;99.90;;;;;;5060898;28;20036;-65
2023/06/20 00:10:20;;;;;;;10.20;5.78;;;20.30;99.90;;;;;;5059535;28;20032;-66
2023/06/20 00:12:45;;;;;;;12.70;6.15;;;20.40;99.90;;;;;;5060061;28;20045;-65
2023/06/20 00:15:11;;;;;;;12.90;6.13;;;20.20;99.90;;;;;;5055073;28;20042;-66
2023/06/20 00:17:38;;;;;;;9.47;6.20;;;20.20;99.90;;;;;;5061524;28;20112;-66
2023/06/20 00:20:05;;;;;;;13.15;6.45;;;20.20;99.90;;;;;;5063312;28;20039;-65
2023/06/20 00:22:34;;;;;;;8.50;6.35;;;20.10;99.90;;;;;;5056601;28;20484;-66
2023/06/20 00:25:04;;;;;;;7.97;6.07;;;20.10;99.90;;;;;;5068280;28;20021;-66
2023/06/20 00:27:29;;;;;;;16.42;6.68;;;20.00;99.90;;;;;;5065743;28;20115;-66
2023/06/20 00:29:55;;;;;;;11.47;6.80;;;19.90;99.90;;;;;;5062672;28;20113;-65
2023/06/20 00:32:21;;;;;;;12.47;6.07;;;19.90;99.90;;;;;;5063520;28;20658;-65
2023/06/20 00:34:46;;;;;;;9.40;6.43;;;19.80;99.90;;;;;;5070626;28;20470;-64
2023/06/20 00:37:12;;;;;;;17.57;7.17;;;19.80;99.90;;;;;;5064021;28;20036;-65
2023/06/20 00:39:37;;;;;;;14.73;6.13;;;19.80;99.90;;;;;;5070710;28;20119;-66
2023/06/20 00:42:04;;;;;;;8.63;6.50;;;19.80;99.90;;;;;;5058762;28;20032;-65
2023/06/20 00:44:29;;;;;;;;;;;19.70;99.90;;;;;;5043605;28;20022;-65
2023/06/20 00:46:55;;;;;;;12.70;6.60;;;19.70;99.90;;;;;;5061227;28;19958;-65
2023/06/20 00:49:21;;;;;;;9.02;6.18;;;19.70;99.90;;;;;;5044275;28;20032;-65
2023/06/20 00:51:49;;;;;;;8.88;6.55;;;19.80;99.90;;;;;;5069510;28;20028;-65
2023/06/20 00:54:15;;;;;;;11.43;6.72;;;19.80;99.90;;;;;;5062668;28;20017;-65
2023/06/20 00:56:42;;;;;;;12.07;6.87;;;19.70;99.90;;;;;;5055363;28;20033;-66
2023/06/20 00:59:07;;;;;;;9.13;6.55;;;19.70;99.90;;;;;;5066307;28;20027;-65
2023/06/20 01:01:33;;;;;;;17.50;7.45;;;19.60;99.90;;;;;;5062492;28;20394;-65
2023/06/20 01:04:00;;;;;;;11.53;6.73;;;19.50;99.90;;;;;;5060556;28;20481;-65
2023/06/20 01:06:59;;;;;;;12.80;7.28;;;19.50;99.90;;;;;;5062945;28;20104;-65
2023/06/20 01:09:44;;;;;;;8.45;6.85;;;19.60;99.90;;;;;;5067948;28;20025;-65
2023/06/20 01:12:21;;;;;;;7.05;5.93;;;19.50;99.90;;;;;;5062865;28;20044;-65
2023/06/20 01:15:28;;;;;;;12.85;6.57;;;19.50;99.90;;;;;;5067383;28;20134;-66
2023/06/20 01:18:17;;;;;;;12.13;6.88;;;19.40;99.90;;;;;;5067907;28;20478;-66
2023/06/20 01:20:49;;;;;;;8.68;7.20;;;19.40;99.90;;;;;;5064754;28;20044;-67
2023/06/20 01:23:24;;;;;;;12.57;7.40;;;19.40;99.90;;;;;;5058889;28;20017;-66
2023/06/20 01:25:59;;;;;;;10.45;7.03;;;19.30;99.90;;;;;;5061461;28;20063;-67
2023/06/20 01:28:40;;;;;;;9.85;6.88;;;19.20;99.90;;;;;;5058479;28;20037;-66
2023/06/20 01:31:12;;;;;;;13.25;7.57;;;19.20;99.90;;;;;;5060035;28;20111;-66
2023/06/20 01:34:18;;;;;;;15.68;7.32;;;19.10;99.90;;;;;;5065603;28;20028;-65
2023/06/20 01:36:50;;;;;;;10.20;6.75;;;19.10;99.90;;;;;;5023328;28;20145;-66
2023/06/20 01:39:22;;;;;;;10.82;7.47;;;19.00;99.90;;;;;;5065359;28;20418;-65
2023/06/20 01:41:49;;;;;;;14.18;7.35;;;19.00;99.90;;;;;;5059934;28;20163;-65
2023/06/20 01:44:17;;;;;;;17.55;8.32;;;18.90;99.90;;;;;;5062804;28;20025;-66
2023/06/20 01:46:46;;;;;;;13.65;8.02;;;19.00;99.90;;;;;;5062971;28;20020;-65
2023/06/20 01:49:13;;;;;;;10.77;7.60;;;18.90;99.90;;;;;;5065289;28;20044;-66
2023/06/20 01:51:40;;;;;;;9.63;7.18;;;19.00;99.90;;;;;;5064119;28;20017;-65
2023/06/20 01:54:07;;;;;;;8.02;7.05;;;19.00;99.90;;;;;;5053654;28;20032;-67
2023/06/20 01:56:34;;;;;;;14.38;7.40;;;19.00;99.90;;;;;;5059150;28;20484;-66
2023/06/20 01:59:02;;;;;;;12.70;7.53;;;18.80;99.90;;;;;;5066627;28;20033;-66
2023/06/20 02:01:30;;;;;;;11.77;7.80;;;19.00;99.90;;;;;;5064514;28;20502;-66
2023/06/20 02:03:58;;;;;;;10.13;7.10;;;19.00;99.90;;;;;;5062297;28;20079;-66
2023/06/20 02:06:25;;;;;;;15.90;7.57;;;19.00;99.90;;;;;;5065138;28;20411;-65
2023/06/20 02:08:52;;;;;;;10.13;6.90;;;18.90;99.90;;;;;;5066332;28;20035;-65
2023/06/20 02:11:19;;;;;;;12.88;7.95;;;19.00;99.90;;;;;;5063770;28;20032;-65
2023/06/20 02:13:47;;;;;;;11.52;6.88;;;19.10;99.90;;;;;;5056332;28;20033;-66
2023/06/20 02:16:15;;;;;;;10.30;7.32;;;19.10;99.90;;;;;;5057867;28;20426;-65
2023/06/20 02:18:41;;;;;;;8.77;7.30;;;19.00;99.90;;;;;;5065045;28;20028;-65
2023/06/20 02:21:17;;;;;;;12.90;6.83;;;19.00;99.90;;;;;;5063256;28;20024;-65
2023/06/20 02:23:46;;;;;;;9.30;6.97;;;19.00;99.90;;;;;;5061613;28;20029;-64
2023/06/20 02:26:16;;;;;;;9.43;6.65;;;19.10;99.90;;;;;;5065988;28;20048;-66
2023/06/20 02:28:45;;;;;;;11.82;7.18;;;19.10;99.90;;;;;;5064833;28;20029;-65
2023/06/20 02:31:21;;;;;;;13.20;7.55;;;19.10;99.90;;;;;;5068186;28;20048;-64
2023/06/20 02:33:50;;;;;;;14.55;7.80;;;19.00;99.90;;;;;;5068801;28;20102;-66
2023/06/20 02:36:19;;;;;;;10.25;7.63;;;19.10;99.90;;;;;;5068245;28;20043;-67
2023/06/20 02:38:45;;;;;;;15.18;7.47;;;19.20;99.90;;;;;;5068570;28;20032;-63
2023/06/20 02:41:11;;;;;;;9.97;7.00;;;19.10;99.90;;;;;;5068353;28;20040;-65
2023/06/20 02:43:36;;;;;;;13.05;7.18;;;19.10;99.90;;;;;;5083908;28;20530;-64
2023/06/20 02:46:13;;;;;;;14.03;7.50;;;19.10;99.90;;;;;;5082988;28;20127;-64
2023/06/20 02:48:50;;;;;;;11.98;7.50;;;19.00;99.90;;;;;;5088764;28;20031;-67
2023/06/20 02:51:31;;;;;;;9.13;7.28;;;19.10;99.90;;;;;;5088782;28;20024;-67
2023/06/20 02:54:03;;;;;;;12.45;7.93;;;19.10;99.90;;;;;;5088496;28;20028;-67
2023/06/20 02:56:31;;;;;;;9.38;7.43;;;19.10;99.90;;;;;;5088410;28;20044;-65
2023/06/20 02:59:01;;;;;;;13.98;7.22;;;19.00;99.90;;;;;;5088133;28;20090;-65
2023/06/20 03:01:30;;;;;;;13.10;7.47;;;19.00;99.90;;;;;;5086325;28;20457;-64
2023/06/20 03:03:59;;;;;;;9.32;7.63;;;18.90;99.90;;;;;;5065354;28;20021;-65
2023/06/20 03:06:28;;;;;;;11.70;7.22;;;19.00;99.90;;;;;;5065387;28;20519;-64
2023/06/20 03:08:56;;;;;;;9.18;7.85;;;19.00;99.90;;;;;;5047643;28;20784;-64
2023/06/20 03:11:22;;;;;;;20.70;8.65;;;19.10;99.90;;;;;;5055562;28;20126;-65
2023/06/20 03:13:48;;;;;;;9.55;7.30;;;19.20;99.90;;;;;;5066911;28;20025;-67
2023/06/20 03:16:13;;;;;;;12.33;7.70;;;19.10;99.90;;;;;;5068151;28;20048;-66
2023/06/20 03:18:39;;;;;;;9.90;7.53;;;19.20;99.90;;;;;;5068032;28;20028;-68
2023/06/20 03:21:05;;;;;;;12.35;7.32;;;19.30;99.90;;;;;;5066495;28;20436;-65
2023/06/20 03:23:31;;;;;;;13.60;7.88;;;19.20;99.90;;;;;;5067130;28;20480;-64
2023/06/20 03:25:58;;;;;;;9.45;7.30;;;19.10;99.90;;;;;;5069994;28;20499;-64
2023/06/20 03:28:24;;;;;;;11.15;8.05;;;19.00;99.90;;;;;;5058806;28;20043;-66
2023/06/20 03:30:50;;;;;;;;;;;19.00;99.90;;;;;;5049773;28;20029;-65
2023/06/20 03:33:16;;;;;;;12.50;8.65;;;19.10;99.90;;;;;;5064943;28;19954;-67
2023/06/20 03:35:41;;;;;;;16.30;8.07;;;19.10;99.90;;;;;;5047198;28;20033;-66
2023/06/20 03:38:07;;;;;;;13.03;8.13;;;19.00;99.90;;;;;;5047806;28;20029;-64
2023/06/20 03:40:32;;;;;;;11.50;7.77;;;19.00;99.90;;;;;;5083009;28;20107;-66
2023/06/20 03:42:58;;;;;;;14.70;8.47;;;19.00;99.90;;;;;;5067966;28;20442;-65
2023/06/20 03:45:24;;;;;;;17.90;8.30;;;19.00;99.90;;;;;;5067702;28;20123;-68
2023/06/20 03:47:49;;;;;;;11.50;7.73;;;19.00;99.90;;;;;;5067714;28;20064;-68
2023/06/20 03:50:15;;;;;;;12.23;8.40;;;19.00;99.90;;;;;;5067512;28;20498;-67
2023/06/20 03:52:40;;;;;;;14.07;8.30;;;18.90;99.90;;;;;;5067188;28;20029;-66
2023/06/20 03:55:07;;;;;;;10.73;8.37;;;18.80;99.90;;;;;;5067373;28;20381;-67
2023/06/20 03:57:32;;;;;;;14.13;8.60;;;18.80;99.90;;;;;;5066000;28;20094;-67
2023/06/20 03:59:58;;;;;;;12.57;8.53;;;18.80;99.90;;;;;;5067470;28;20033;-68
2023/06/20 04:02:23;;;;;;;12.43;8.47;;;18.80;99.90;;;;;;5067183;28;20075;-65
2023/06/20 04:04:51;;;;;;;12.37;8.07;;;18.80;99.90;;;;;;5067129;28;20044;-64
2023/06/20 04:07:21;;;;;;;16.45;8.77;;;18.80;99.90;;;;;;5066176;28;20024;-63
2023/06/20 04:09:49;;;;;;;12.27;7.63;;;18.80;99.90;;;;;;5058142;28;20060;-64
2023/06/20 04:12:15;;;;;;;11.43;8.45;;;18.70;99.90;;;;;;5040006;28;20040;-63
2023/06/20 04:14:41;;;;;;;15.35;8.27;;;18.80;99.90;;;;;;5050740;28;20039;-64
2023/06/20 04:17:07;;;;;;;11.27;8.13;;;18.90;99.90;;;;;;5058727;28;20048;-64
2023/06/20 04:19:33;;;;;;;15.85;9.05;;;18.90;99.90;;;;;;5059636;28;20781;-64
2023/06/20 04:21:59;;;;;;;13.52;8.02;;;18.90;99.90;;;;;;5050876;28;20029;-67
2023/06/20 04:24:25;;;;;;;12.63;7.80;;;18.80;99.90;;;;;;5057159;28;20037;-67
2023/06/20 04:26:54;;;;;;;18.02;8.85;;;18.90;99.90;;;;;;5054835;28;20038;-67
2023/06/20 04:29:20;;;;;;;12.10;8.35;;;18.80;99.90;;;;;;5051928;28;20538;-67
2023/06/20 04:31:45;;;;;;;19.13;8.30;;;18.90;99.90;;;;;;5041436;28;20036;-68
2023/06/20 04:34:11;;;;;;;18.07;8.57;;;18.90;99.90;;;;;;5055900;28;20045;-67
2023/06/20 04:36:36;;;;;;;11.50;7.80;;;18.90;99.90;;;;;;5050446;28;20033;-67
2023/06/20 04:39:02;;;;;;;15.07;7.90;;;18.90;99.90;;;;;;5058547;28;20567;-67
2023/06/20 04:41:28;;;;;;;11.10;8.02;;;19.10;99.90;;;;;;5048819;28;20091;-65
2023/06/20 04:43:53;;;;;;;10.57;7.70;;;19.10;99.90;;;;;;5047889;28;20075;-68
2023/06/20 04:46:19;;;;;;;17.93;8.33;;;19.20;99.90;;;;;;5065966;28;20093;-65
2023/06/20 04:48:47;;;;;;;13.83;7.80;;;19.10;99.90;;;;;;5057678;28;20033;-67
2023/06/20 04:51:13;;;;;;;11.55;7.88;;;19.20;99.90;;;;;;5057240;28;20654;-67
2023/06/20 04:53:39;;;;;;;12.05;8.63;;;19.20;99.90;;;;;;5062135;28;20037;-66
2023/06/20 04:56:05;;;;;;;10.90;7.40;;;19.20;99.90;;;;;;5059859;28;20047;-67
2023/06/20 04:58:31;;;;;;;14.57;7.82;;;19.30;99.90;;;;;;5055514;28;20043;-65
2023/06/20 05:00:58;;;;;;;12.65;7.80;;;19.30;99.90;;;;;;5064254;28;20043;-65
2023/06/20 05:03:24;;;;;;;12.10;8.30;;;19.50;99.90;;;;;;5037151;28;20035;-66
2023/06/20 05:05:50;;;;;;;12.23;7.60;;;19.60;99.90;;;;;;5053849;28;20107;-66
2023/06/20 05:08:16;;;;;;;12.70;7.47;;;19.70;99.90;;;;;;5059664;28;20511;-67
2023/06/20 05:10:41;;;;;;;13.43;7.47;;;19.90;99.90;;;;;;5060253;28;20025;-67
2023/06/20 05:13:07;;;;;;;10.87;7.47;;;20.00;99.90;;;;;;5057959;28;20538;-67
2023/06/20 05:15:32;;;;;;;11.23;7.50;;;20.10;99.90;;;;;;5059219;28;20078;-65
2023/06/20 05:17:58;;;;;;;14.27;6.93;;;20.20;99.90;;;;;;5040544;28;20036;-65
2023/06/20 05:20:24;;;;;;;16.97;7.97;;;20.30;99.90;;;;;;5058792;28;20036;-66
2023/06/20 05:22:49;;;;;;;11.13;7.00;;;20.60;99.90;;;;;;5058931;28;20542;-65
2023/06/20 05:25:15;;;;;;;12.17;7.27;;;20.60;99.90;;;;;;5060281;28;20040;-63
2023/06/20 05:27:41;;;;;;;10.43;7.17;;;20.70;99.90;;;;;;5066454;28;20408;-65
2023/06/20 05:30:08;;;;;;;13.20;9.23;;;20.90;99.90;;;;;;5058624;28;20033;-65
2023/06/20 05:32:34;;;;;;;9.00;7.22;;;21.20;99.90;;;;;;5058190;28;20268;-65
2023/06/20 05:35:00;;;;;;;13.50;7.35;;;21.60;99.90;;;;;;5069277;28;20086;-64
2023/06/20 05:37:28;;;;;;;10.43;6.90;;;21.70;99.90;;;;;;5065597;28;20056;-66
2023/06/20 05:39:53;;;;;;;16.20;7.15;;;21.70;99.90;;;;;;5062790;28;20029;-65
2023/06/20 05:42:19;;;;;;;10.63;7.60;;;22.00;99.90;;;;;;5060300;28;20047;-66
2023/06/20 05:44:45;;;;;;;10.83;7.07;;;22.20;99.90;;;;;;5060163;28;20767;-65
2023/06/20 05:47:17;;;;;;;10.63;7.22;;;22.20;99.90;;;;;;5061397;28;20042;-65
2023/06/20 05:49:46;;;;;;;13.65;7.47;;;22.70;98.50;;;;;;5065472;28;20040;-63
2023/06/20 05:52:12;;;;;;;12.52;7.53;;;23.00;97.90;;;;;;5057842;28;20028;-64
2023/06/20 05:54:38;;;;;;;9.38;6.93;;;23.40;96.40;;;;;;5060429;28;20029;-64
2023/06/20 05:57:05;;;;;;;13.33;7.47;;;23.80;96.00;;;;;;5059822;28;20526;-65
2023/06/20 05:59:31;;;;;;;12.52;6.88;;;23.80;96.40;;;;;;5058824;28;20376;-64
2023/06/20 06:01:57;;;;;;;14.23;6.32;;;24.90;94.80;;;;;;5059478;28;20098;-64
2023/06/20 06:04:22;;;;;;;10.15;7.28;;;25.10;92.70;;;;;;5063166;28;20028;-65
2023/06/20 06:06:48;;;;;;;11.20;6.67;;;26.20;90.90;;;;;;5058054;28;20544;-64
2023/06/20 06:09:15;;;;;;;10.10;6.97;;;25.40;90.60;;;;;;5056719;28;20036;-65
2023/06/20 06:11:40;;;;;;;10.40;6.78;;;24.10;94.10;;;;;;5062134;28;20663;-65
2023/06/20 06:14:06;;;;;;;9.57;7.13;;;23.90;95.40;;;;;;5065765;28;20032;-67
2023/06/20 06:16:32;;;;;;;12.00;7.25;;;24.50;94.40;;;;;;5056749;28;20051;-65
2023/06/20 06:18:59;;;;;;;11.65;6.93;;;24.70;93.60;;;;;;5058653;28;20068;-64
2023/06/20 06:21:25;;;;;;;16.27;7.18;;;24.80;94.30;;;;;;5059515;28;20041;-65
2023/06/20 06:23:51;;;;;;;8.65;6.70;;;24.30;96.30;;;;;;5060009;28;20032;-66
2023/06/20 06:26:16;;;;;;;12.38;6.82;;;25.10;93.80;;;;;;5063141;28;20396;-65
2023/06/20 06:28:42;;;;;;;12.45;6.82;;;24.70;94.10;;;;;;5057433;28;20160;-66
2023/06/20 06:31:13;;;;;;;13.37;6.57;;;24.30;95.90;;;;;;5056583;28;20093;-65
2023/06/20 06:33:40;;;;;;;18.08;7.00;;;24.00;97.50;;;;;;5063285;28;20258;-66
2023/06/20 06:36:06;;;;;;;12.70;7.22;;;23.70;96.90;;;;;;5058592;28;20581;-65
2023/06/20 06:38:32;;;;;;;10.18;6.35;;;23.50;96.70;;;;;;5055484;28;20497;-65
2023/06/20 06:40:59;;;;;;;;;;;23.70;99.70;;;;;;5061013;28;20036;-65
2023/06/20 06:43:25;;;;;;;11.27;7.17;;;23.60;97.50;;;;;;5063947;28;20315;-65
2023/06/20 06:45:51;;;;;;;12.35;7.25;;;23.70;97.00;;;;;;5061374;28;20035;-65
2023/06/20 06:48:16;;;;;;;15.18;6.88;;;23.60;98.20;;;;;;5057823;28;20508;-65
2023/06/20 06:50:43;;;;;;;10.60;7.47;;;23.80;98.80;;;;;;5057815;28;20029;-65
2023/06/20 06:53:10;;;;;;;10.40;7.40;;;23.70;98.40;;;;;;5061819;28;20035;-65
2023/06/20 06:55:35;;;;;;;11.75;7.05;;;23.80;98.60;;;;;;5059631;28;20146;-65
2023/06/20 06:58:01;;;;;;;14.17;7.80;;;23.60;95.60;;;;;;5055930;28;20109;-65
2023/06/20 07:00:27;;;;;;;11.15;7.22;;;23.60;96.30;;;;;;5060462;28;20480;-66
2023/06/20 07:02:52;;;;;;;10.55;5.85;;;23.80;95.80;;;;;;5056992;28;20110;-64
2023/06/20 07:05:19;;;;;;;8.40;5.97;;;23.70;94.90;;;;;;5061651;28;20047;-64
2023/06/20 07:07:45;;;;;;;13.10;7.15;;;23.90;97.30;;;;;;5036761;28;20378;-64
2023/06/20 07:10:10;;;;;;;14.02;6.25;;;24.00;95.90;;;;;;5056970;28;20430;-65
2023/06/20 07:12:36;;;;;;;9.85;6.45;;;23.90;94.90;;;;;;5057289;28;20033;-65
2023/06/20 07:15:03;;;;;;;9.27;6.05;;;23.80;93.90;;;;;;5052013;28;20095;-65
2023/06/20 07:17:29;;;;;;;11.50;6.45;;;23.70;94.00;;;;;;5056455;28;20076;-65
2023/06/20 07:19:55;;;;;;;8.85;6.25;;;23.80;94.60;;;;;;5061450;28;20412;-65
2023/06/20 07:22:21;;;;;;;13.27;5.90;;;24.00;94.00;;;;;;5058654;28;20028;-65
2023/06/20 07:24:46;;;;;;;10.13;5.32;;;24.30;92.30;;;;;;5056175;28;20055;-65
2023/06/20 07:27:12;;;;;;;8.93;6.97;;;24.40;92.30;;;;;;5055182;28;20051;-65
2023/06/20 07:29:38;;;;;;;12.87;6.23;;;24.70;92.60;;;;;;5056156;28;20033;-65
2023/06/20 07:32:04;;;;;;;11.30;6.70;;;24.90;91.40;;;;;;5057674;28;20040;-65
2023/06/20 07:34:29;;;;;;;8.32;6.65;;;24.90;91.70;;;;;;5050146;28;20110;-64
2023/06/20 07:36:56;;;;;;;15.17;5.93;;;25.00;94.00;;;;;;5065704;28;20058;-65
2023/06/20 07:39:21;;;;;;;;;;;25.10;90.60;;;;;;5056913;28;20036;-65
2023/06/20 07:41:47;;;;;;;11.25;6.05;;;24.50;90.40;;;;;;5060099;28;20431;-65
2023/06/20 07:44:12;;;;;;;8.30;5.93;;;24.50;90.60;;;;;;5054709;28;20024;-65
2023/06/20 07:46:39;;;;;;;9.93;6.90;;;24.70;94.10;;;;;;5061647;28;20028;-65
2023/06/20 07:49:05;;;;;;;10.32;6.70;;;24.90;90.80;;;;;;5058544;28;20037;-65
2023/06/20 07:51:33;;;;;;;11.80;6.13;;;25.20;94.50;;;;;;5059213;28;20031;-65
2023/06/20 07:53:59;;;;;;;11.63;5.97;;;25.50;92.10;;;;;;5052670;28;20094;-65
2023/06/20 07:56:24;;;;;;;9.45;6.20;;;26.00;91.10;;;;;;5038446;28;20036;-65
2023/06/20 07:58:50;;;;;;;8.07;5.87;;;26.70;89.40;;;;;;5062978;28;20076;-65
2023/06/20 08:01:17;;;;;;;12.88;6.05;;;26.40;87.50;;;;;;5047770;28;20898;-65
2023/06/20 08:03:43;;;;;;;6.80;5.18;;;26.10;82.80;;;;;;5058738;28;20032;-65
2023/06/20 08:06:10;;;;;;;17.73;6.13;;;26.30;86.50;;;;;;5053368;28;20029;-65
2023/06/20 08:08:36;;;;;;;7.28;5.53;;;26.40;86.20;;;;;;5055857;28;20040;-65
2023/06/20 08:11:02;;;;;;;11.45;5.72;;;26.20;84.00;;;;;;5060867;28;20039;-65
2023/06/20 08:13:27;;;;;;;11.90;5.80;;;26.20;82.20;;;;;;5057337;28;20076;-65
2023/06/20 08:15:53;;;;;;;10.98;6.25;;;27.20;80.40;;;;;;5062982;28;20519;-65
2023/06/20 08:18:18;;;;;;;15.27;7.37;;;27.40;82.70;;;;;;5064029;28;20137;-65
2023/06/20 08:20:45;;;;;;;22.40;7.30;;;27.50;79.10;;;;;;5060058;28;20280;-66
2023/06/20 08:23:11;;;;;;;19.52;8.25;;;28.20;78.20;;;;;;5055849;28;20056;-69
2023/06/20 08:25:36;;;;;;;10.98;6.25;;;28.00;78.50;;;;;;5039021;28;20484;-69
2023/06/20 08:28:02;;;;;;;10.20;5.90;;;28.50;75.00;;;;;;5058004;28;20858;-68
2023/06/20 08:30:27;;;;;;;39.42;12.27;;;30.20;75.10;;;;;;5056373;28;20017;-68
2023/06/20 08:32:53;;;;;;;209.23;47.53;;;30.10;68.20;;;;;;5058937;28;20036;-67
2023/06/20 08:35:18;;;;;;;40.53;12.13;;;30.00;74.70;;;;;;5063231;28;20103;-68
2023/06/20 08:37:44;;;;;;;11.00;6.55;;;29.50;70.00;;;;;;5064868;28;20072;-70
2023/06/20 08:40:14;;;;;;;12.55;7.15;;;30.00;72.70;;;;;;5056725;28;20036;-69
2023/06/20 08:42:42;;;;;;;13.68;6.97;;;30.60;67.20;;;;;;5061709;28;20056;-69
2023/06/20 08:45:08;;;;;;;9.27;5.50;;;30.80;66.90;;;;;;5065564;28;20054;-69
2023/06/20 08:47:34;;;;;;;109.18;13.40;;;30.80;71.00;;;;;;5063988;28;20672;-69
2023/06/20 08:50:00;;;;;;;18.23;6.47;;;30.40;69.20;;;;;;5068099;28;20102;-69
2023/06/20 08:52:30;;;;;;;20.45;6.47;;;29.80;66.90;;;;;;5066648;28;20025;-69
2023/06/20 08:54:56;;;;;;;11.32;5.60;;;30.10;65.80;;;;;;5064698;28;20094;-67
2023/06/20 08:57:23;;;;;;;9.27;5.18;;;30.50;66.50;;;;;;5066282;28;20504;-69
2023/06/20 08:59:48;;;;;;;9.85;5.35;;;31.70;62.60;;;;;;5064064;28;20525;-69
2023/06/20 09:02:15;;;;;;;14.07;6.07;;;34.30;60.50;;;;;;5068136;28;20037;-70
2023/06/20 09:04:41;;;;;;;12.20;5.80;;;35.80;58.30;;;;;;5064681;28;20033;-69
2023/06/20 09:07:15;;;;;;;;;;;37.20;57.10;;;;;;5051234;28;20040;-70
2023/06/20 09:09:40;;;;;;;7.97;5.32;;;35.40;57.10;;;;;;5058268;28;20434;-70
2023/06/20 09:12:07;;;;;;;;;;;35.70;53.10;;;;;;5058484;28;20048;-69
2023/06/20 09:14:32;;;;;;;20.73;8.48;;;37.10;53.50;;;;;;5067473;28;19935;-69
2023/06/20 09:17:00;;;;;;;12.27;5.40;;;37.80;51.50;;;;;;5054995;28;20401;-69
2023/06/20 09:19:25;;;;;;;10.65;5.97;;;38.30;51.50;;;;;;5063406;28;20031;-70
2023/06/20 09:21:51;;;;;;;6.63;4.75;;;38.00;48.80;;;;;;5063671;28;20036;-69
2023/06/20 09:24:21;;;;;;;18.17;7.40;;;39.20;49.90;;;;;;5063372;28;20111;-70
2023/06/20 09:26:50;;;;;;;9.05;5.30;;;39.90;49.90;;;;;;5063686;28;20078;-69
2023/06/20 09:29:16;;;;;;;10.30;5.32;;;39.10;48.00;;;;;;5063669;28;20032;-70
2023/06/20 09:31:51;;;;;;;13.75;5.07;;;39.90;48.50;;;;;;5061758;28;20134;-70
2023/06/20 09:34:18;;;;;;;6.82;5.25;;;38.70;48.30;;;;;;5040744;28;20048;-69
2023/06/20 09:36:47;;;;;;;14.23;5.15;;;39.40;49.10;;;;;;5041894;28;20094;-70
2023/06/20 09:39:15;;;;;;;10.43;5.10;;;39.80;52.00;;;;;;5061305;28;20025;-70
2023/06/20 09:41:47;;;;;;;15.18;7.00;;;40.30;51.70;;;;;;5062775;28;20059;-71
2023/06/20 09:44:14;;;;;;;9.55;5.47;;;41.00;48.50;;;;;;5055248;28;20120;-70
2023/06/20 09:46:40;;;;;;;10.80;5.25;;;37.90;51.40;;;;;;5058683;28;20056;-69
2023/06/20 09:49:06;;;;;;;8.30;4.80;;;39.00;49.60;;;;;;5064313;28;20082;-69
2023/06/20 09:51:42;;;;;;;9.73;5.38;;;38.60;51.20;;;;;;5063388;28;20453;-68
2023/06/20 09:54:12;;;;;;;10.03;5.17;;;38.20;51.40;;;;;;5059163;28;20021;-69
2023/06/20 09:56:47;;;;;;;8.10;5.25;;;37.30;49.10;;;;;;5048780;28;20039;-69
2023/06/20 09:59:15;;;;;;;14.77;5.90;;;40.20;50.30;;;;;;5059495;28;20107;-69
2023/06/20 10:01:41;;;;;;;11.27;5.90;;;40.40;49.20;;;;;;5060907;28;20090;-69
2023/06/20 10:04:08;;;;;;;9.05;5.68;;;38.90;48.60;;;;;;5055485;28;20037;-69
2023/06/20 10:06:37;;;;;;;6.95;5.22;;;37.40;54.20;;;;;;5044185;28;20656;-69
2023/06/20 10:09:07;;;;;;;12.75;5.47;;;36.30;54.80;;;;;;5048992;28;20115;-70
2023/06/20 10:11:37;;;;;;;12.32;6.10;;;37.60;52.10;;;;;;5059278;28;20059;-70
2023/06/20 10:14:04;;;;;;;6.93;5.38;;;37.60;51.30;;;;;;5056883;28;20032;-70
2023/06/20 10:16:30;;;;;;;8.63;5.60;;;38.10;53.30;;;;;;5060804;28;20048;-69
2023/06/20 10:18:56;;;;;;;6.47;5.03;;;37.40;52.10;;;;;;5053970;28;20021;-68
2023/06/20 10:21:57;;;;;;;9.50;4.70;;;35.20;57.00;;;;;;5043395;28;20504;-69
2023/06/20 10:24:32;;;;;;;10.00;5.13;;;34.60;57.90;;;;;;5060362;28;20044;-69
2023/06/20 10:27:03;;;;;;;7.68;4.82;;;34.30;59.80;;;;;;5054886;28;20036;-69
2023/06/20 10:29:29;;;;;;;12.35;5.07;;;33.80;61.40;;;;;;5060318;28;20554;-69
2023/06/20 10:32:04;;;;;;;10.43;4.93;;;33.40;61.50;;;;;;5064145;28;20067;-69
2023/06/20 10:34:39;;;;;;;10.57;5.67;;;32.80;62.50;;;;;;5061282;28;20035;-69
2023/06/20 10:37:36;;;;;;;8.00;4.57;;;32.80;61.80;;;;;;5061499;28;20524;-69
2023/06/20 10:40:05;;;;;;;9.52;5.40;;;32.60;61.70;;;;;;5060960;28;20090;-69
2023/06/20 10:42:32;;;;;;;7.30;4.97;;;32.40;61.60;;;;;;5058992;28;20142;-69
2023/06/20 10:45:24;;;;;;;8.32;5.40;;;32.50;60.20;;;;;;5059774;28;20127;-69
2023/06/20 10:47:50;;;;;;;10.82;4.88;;;32.50;64.20;;;;;;5043896;28;20035;-70
2023/06/20 10:50:16;;;;;;;12.55;5.38;;;32.50;61.20;;;;;;5061521;28;20031;-69
2023/06/20 10:52:42;;;;;;;10.18;5.30;;;31.20;61.80;;;;;;5065715;28;20102;-70
2023/06/20 10:55:15;;;;;;;;;;;31.20;63.80;;;;;;5057586;28;20494;-68
2023/06/20 10:57:48;;;;;;;9.70;5.55;;;31.60;62.90;;;;;;5064736;28;19920;-69
2023/06/20 11:00:18;;;;;;;10.45;6.18;;;31.80;63.90;;;;;;5054950;28;20033;-68
2023/06/20 11:02:55;;;;;;;7.78;5.55;;;31.90;65.60;;;;;;5062697;28;20116;-69
2023/06/20 11:05:28;;;;;;;10.68;5.90;;;31.20;62.10;;;;;;5057315;28;20473;-69
2023/06/20 11:08:12;;;;;;;7.30;5.10;;;31.20;62.90;;;;;;5056392;28;20405;-68
2023/06/20 11:10:40;;;;;;;8.88;6.25;;;30.80;63.20;;;;;;5055808;28;20033;-69
2023/06/20 11:13:06;;;;;;;8.98;5.90;;;31.20;64.50;;;;;;5032170;28;20040;-70
2023/06/20 11:15:34;;;;;;;11.20;5.80;;;31.20;68.40;;;;;;5059637;28;20043;-69
2023/06/20 11:18:06;;;;;;;9.68;5.22;;;31.20;64.90;;;;;;5058119;28;20123;-69
2023/06/20 11:20:37;;;;;;;12.90;5.93;;;31.30;68.00;;;;;;5064673;28;20125;-68
2023/06/20 11:23:10;;;;;;;7.43;5.57;;;31.40;66.80;;;;;;5050751;28;20041;-68
2023/06/20 11:25:37;;;;;;;8.15;5.68;;;31.80;65.80;;;;;;5057917;28;20025;-68
2023/06/20 11:28:14;;;;;;;12.73;6.22;;;31.70;66.50;;;;;;5062466;28;20636;-68
2023/06/20 11:30:46;;;;;;;8.93;5.78;;;31.20;66.30;;;;;;5062599;28;20025;-69
2023/06/20 11:33:16;;;;;;;9.20;5.65;;;31.40;67.20;;;;;;5060785;28;20085;-68
2023/06/20 11:35:54;;;;;;;13.13;4.20;;;31.60;66.60;;;;;;5063212;28;20024;-68
2023/06/20 11:38:28;;;;;;;12.32;5.57;;;31.80;64.80;;;;;;5059193;28;20040;-68
2023/06/20 11:41:08;;;;;;;11.00;4.90;;;32.00;62.80;;;;;;5059091;28;20029;-68
2023/06/20 11:43:42;;;;;;;10.45;4.93;;;31.70;59.60;;;;;;5055364;28;20318;-67
2023/06/20 11:46:10;;;;;;;21.45;5.20;;;31.70;60.10;;;;;;5052975;28;20492;-67
2023/06/20 11:48:36;;;;;;;19.40;5.03;;;31.50;62.00;;;;;;5056258;28;20041;-68
2023/06/20 11:51:03;;;;;;;;;;;31.70;63.10;;;;;;5052435;28;20040;-66
2023/06/20 11:53:33;;;;;;;8.97;4.77;;;31.80;61.00;;;;;;5058821;28;19916;-68
2023/06/20 11:56:00;;;;;;;9.25;4.93;;;31.70;58.60;;;;;;5062001;28;20028;-67
2023/06/20 11:58:26;;;;;;;11.10;5.40;;;31.60;60.90;;;;;;5040185;28;20423;-67
2023/06/20 12:01:02;;;;;;;;;;;31.80;61.30;;;;;;5063673;28;20089;-67
2023/06/20 12:03:28;;;;;;;11.23;5.43;;;31.70;61.30;;;;;;5060939;28;19969;-67
2023/06/20 12:05:56;;;;;;;;;;;31.50;60.90;;;;;;5056426;28;20522;-66
2023/06/20 12:08:29;;;;;;;8.43;5.45;;;31.30;62.30;;;;;;5054003;28;19908;-67
2023/06/20 12:11:00;;;;;;;10.90;6.68;;;31.40;61.90;;;;;;5056187;28;20032;-67
2023/06/20 12:13:26;;;;;;;8.15;6.07;;;31.60;61.40;;;;;;5060830;28;20016;-67
2023/06/20 12:15:52;;;;;;;7.95;5.20;;;31.70;61.70;;;;;;5040718;28;20036;-66
2023/06/20 12:18:18;;;;;;;;;;;31.50;62.10;;;;;;5059875;28;20041;-67
2023/06/20 12:20:45;;;;;;;10.02;5.95;;;31.20;62.60;;;;;;5066364;28;19918;-65
2023/06/20 12:23:12;;;;;;;10.48;6.30;;;31.20;63.10;;;;;;5069605;28;20063;-66
2023/06/20 12:25:37;;;;;;;11.63;5.72;;;31.30;63.20;;;;;;5068274;28;20031;-66
2023/06/20 12:28:03;;;;;;;10.07;5.28;;;31.20;62.20;;;;;;5051538;28;20036;-67
2023/06/20 12:30:30;;;;;;;10.32;4.60;;;31.00;62.30;;;;;;5066952;28;20024;-68
2023/06/20 12:32:58;;;;;;;7.75;5.15;;;30.80;61.10;;;;;;5062507;28;20044;-68
2023/06/20 12:35:26;;;;;;;9.50;4.80;;;30.70;63.90;;;;;;5061967;28;20044;-67
2023/06/20 12:37:53;;;;;;;11.65;5.75;;;30.80;62.40;;;;;;5062031;28;20068;-68
2023/06/20 12:40:18;;;;;;;9.80;5.22;;;31.00;62.90;;;;;;5045765;28;20812;-67
2023/06/20 12:42:44;;;;;;;12.93;5.88;;;31.20;64.00;;;;;;5062429;28;20207;-67
2023/06/20 12:45:10;;;;;;;8.52;5.65;;;31.40;62.90;;;;;;5063992;28;20076;-67
2023/06/20 12:47:40;;;;;;;6.63;5.22;;;31.30;62.30;;;;;;5068178;28;20472;-67